createdAt,value
2018-09-23T00:00:28.202Z,964.84
2018-09-23T00:01:28.197Z,964.83
2018-09-23T00:02:28.195Z,964.80
2018-09-23T00:03:28.194Z,964.84
2018-09-23T00:04:28.190Z,964.81
2018-09-23T00:05:28.203Z,964.75
2018-09-23T00:06:28.187Z,964.79
2018-09-23T00:07:28.186Z,964.80
2018-09-23T00:08:28.184Z,964.76
2018-09-23T00:09:28.184Z,964.71
2018-09-23T00:10:28.181Z,964.74
2018-09-23T00:11:28.179Z,964.76
2018-09-23T00:12:28.183Z,964.79
2018-09-23T00:13:28.173Z,964.81
2018-09-23T00:14:28.172Z,964.82
2018-09-23T00:15:28.171Z,964.79
2018-09-23T00:16:28.168Z,964.78
2018-09-23T00:17:28.165Z,964.76
2018-09-23T00:18:28.172Z,964.70
2018-09-23T00:19:28.189Z,964.68
2018-09-23T00:20:28.159Z,964.61
2018-09-23T00:21:28.158Z,964.52
2018-09-23T00:22:28.182Z,964.55
2018-09-23T00:23:28.153Z,964.56
2018-09-23T00:24:28.181Z,964.52
2018-09-23T00:25:28.149Z,964.58
2018-09-23T00:26:28.148Z,964.55
2018-09-23T00:27:28.150Z,964.54
2018-09-23T00:28:28.147Z,964.53
2018-09-23T00:29:28.141Z,964.48
2018-09-23T00:30:28.140Z,964.46
2018-09-23T00:31:28.140Z,964.43
2018-09-23T00:32:28.136Z,964.40
2018-09-23T00:33:28.135Z,964.37
2018-09-23T00:34:28.133Z,964.40
2018-09-23T00:35:28.129Z,964.33
2018-09-23T00:36:28.128Z,964.37
2018-09-23T00:37:28.133Z,964.29
2018-09-23T00:38:28.127Z,964.25
2018-09-23T00:39:28.122Z,964.22
2018-09-23T00:40:28.118Z,964.26
2018-09-23T00:41:28.115Z,964.25
2018-09-23T00:42:28.113Z,964.21
2018-09-23T00:43:28.116Z,964.23
2018-09-23T00:44:28.114Z,964.21
2018-09-23T00:45:28.130Z,964.18
2018-09-23T00:46:28.104Z,964.18
2018-09-23T00:47:28.105Z,964.20
2018-09-23T00:48:28.101Z,964.21
2018-09-23T00:49:28.099Z,964.25
2018-09-23T00:50:28.098Z,964.25
2018-09-23T00:51:28.094Z,964.27
2018-09-23T00:52:28.094Z,964.25
2018-09-23T00:53:28.088Z,964.20
2018-09-23T00:54:28.092Z,964.25
2018-09-23T00:55:28.087Z,964.28
2018-09-23T00:56:28.086Z,964.24
2018-09-23T00:57:28.083Z,964.22
2018-09-23T00:58:28.079Z,964.22
2018-09-23T00:59:28.096Z,964.20
2018-09-23T01:00:28.071Z,964.20
2018-09-23T01:01:28.070Z,964.18
2018-09-23T01:02:28.073Z,964.18
2018-09-23T01:03:28.067Z,964.12
2018-09-23T01:04:28.062Z,964.07
2018-09-23T01:05:28.063Z,964.06
2018-09-23T01:06:28.080Z,964.07
2018-09-23T01:07:28.059Z,964.08
2018-09-23T01:08:28.059Z,964.07
2018-09-23T01:09:28.050Z,964.03
2018-09-23T01:10:28.051Z,964.02
2018-09-23T01:11:28.049Z,964.01
2018-09-23T01:12:28.045Z,964.02
2018-09-23T01:13:28.044Z,964.01
2018-09-23T01:14:28.044Z,963.99
2018-09-23T01:15:28.039Z,964.01
2018-09-23T01:16:28.037Z,964.00
2018-09-23T01:17:28.039Z,963.97
2018-09-23T01:18:28.036Z,963.95
2018-09-23T01:19:28.029Z,963.97
2018-09-23T01:20:28.032Z,964.00
2018-09-23T01:21:28.032Z,963.97
2018-09-23T01:22:28.022Z,963.94
2018-09-23T01:23:28.020Z,963.93
2018-09-23T01:24:28.018Z,963.88
2018-09-23T01:25:28.033Z,963.90
2018-09-23T01:26:28.013Z,963.88
2018-09-23T01:27:28.011Z,963.87
2018-09-23T01:28:28.009Z,963.83
2018-09-23T01:29:28.008Z,963.77
2018-09-23T01:30:28.002Z,963.74
2018-09-23T01:31:28.004Z,963.72
2018-09-23T01:32:27.998Z,963.71
2018-09-23T01:33:28.020Z,963.66
2018-09-23T01:34:27.992Z,963.66
2018-09-23T01:35:27.992Z,963.71
2018-09-23T01:36:27.990Z,963.68
2018-09-23T01:37:27.986Z,963.63
2018-09-23T01:38:27.986Z,963.67
2018-09-23T01:39:27.983Z,963.68
2018-09-23T01:40:27.981Z,963.70
2018-09-23T01:41:27.976Z,963.72
2018-09-23T01:42:27.974Z,963.69
2018-09-23T01:43:27.975Z,963.72
2018-09-23T01:44:27.970Z,963.67
2018-09-23T01:45:28.006Z,963.61
2018-09-23T01:46:27.963Z,963.65
2018-09-23T01:47:27.966Z,963.62
2018-09-23T01:48:27.968Z,963.60
2018-09-23T01:49:27.958Z,963.62
2018-09-23T01:50:27.958Z,963.61
2018-09-23T01:51:27.969Z,963.59
2018-09-23T01:52:27.953Z,963.60
2018-09-23T01:53:27.952Z,963.51
2018-09-23T01:54:27.948Z,963.54
2018-09-23T01:55:27.942Z,963.56
2018-09-23T01:56:27.946Z,963.53
2018-09-23T01:57:27.938Z,963.56
2018-09-23T01:58:27.936Z,963.60
2018-09-23T01:59:27.934Z,963.54
2018-09-23T02:00:27.935Z,963.49
2018-09-23T02:01:27.929Z,963.48
2018-09-23T02:02:27.927Z,963.50
2018-09-23T02:03:27.926Z,963.47
2018-09-23T02:04:27.923Z,963.47
2018-09-23T02:05:27.920Z,963.44
2018-09-23T02:06:27.915Z,963.42
2018-09-23T02:07:27.916Z,963.40
2018-09-23T02:08:27.916Z,963.40
2018-09-23T02:09:27.910Z,963.40
2018-09-23T02:10:27.908Z,963.45
2018-09-23T02:11:27.905Z,963.41
2018-09-23T02:12:27.903Z,963.41
2018-09-23T02:13:27.901Z,963.33
2018-09-23T02:14:27.918Z,963.33
2018-09-23T02:15:27.895Z,963.29
2018-09-23T02:16:27.893Z,963.29
2018-09-23T02:17:27.913Z,963.29
2018-09-23T02:18:27.892Z,963.33
2018-09-23T02:19:27.888Z,963.33
2018-09-23T02:20:27.887Z,963.35
2018-09-23T02:21:27.881Z,963.39
2018-09-23T02:22:27.881Z,963.34
2018-09-23T02:23:27.877Z,963.37
2018-09-23T02:24:27.876Z,963.36
2018-09-23T02:25:27.870Z,963.39
2018-09-23T02:26:27.870Z,963.38
2018-09-23T02:27:27.869Z,963.33
2018-09-23T02:28:27.866Z,963.33
2018-09-23T02:29:27.864Z,963.29
2018-09-23T02:30:27.863Z,963.26
2018-09-23T02:31:27.861Z,963.25
2018-09-23T02:32:27.856Z,963.25
2018-09-23T02:33:27.855Z,963.22
2018-09-23T02:34:27.854Z,963.20
2018-09-23T02:35:27.850Z,963.19
2018-09-23T02:36:27.861Z,963.18
2018-09-23T02:37:27.857Z,963.19
2018-09-23T02:38:27.844Z,963.18
2018-09-23T02:39:27.850Z,963.20
2018-09-23T02:40:27.839Z,963.19
2018-09-23T02:41:27.835Z,963.20
2018-09-23T02:42:27.835Z,963.21
2018-09-23T02:43:27.830Z,963.21
2018-09-23T02:44:27.828Z,963.15
2018-09-23T02:45:27.829Z,963.09
2018-09-23T02:46:27.823Z,963.03
2018-09-23T02:47:27.824Z,963.02
2018-09-23T02:48:27.817Z,963.01
2018-09-23T02:49:27.818Z,962.99
2018-09-23T02:50:27.818Z,962.97
2018-09-23T02:51:27.813Z,962.99
2018-09-23T02:52:27.810Z,963.04
2018-09-23T02:53:27.808Z,963.03
2018-09-23T02:54:27.809Z,962.96
2018-09-23T02:55:27.803Z,962.96
2018-09-23T02:56:27.803Z,962.89
2018-09-23T02:57:27.807Z,962.87
2018-09-23T02:58:27.796Z,962.85
2018-09-23T02:59:27.795Z,962.80
2018-09-23T03:00:27.793Z,962.81
2018-09-23T03:01:27.793Z,962.75
2018-09-23T03:02:27.787Z,962.73
2018-09-23T03:03:27.784Z,962.71
2018-09-23T03:04:27.783Z,962.64
2018-09-23T03:05:27.790Z,962.57
2018-09-23T03:06:27.783Z,962.63
2018-09-23T03:07:27.775Z,962.66
2018-09-23T03:08:27.773Z,962.64
2018-09-23T03:09:27.771Z,962.62
2018-09-23T03:10:27.768Z,962.66
2018-09-23T03:11:27.767Z,962.63
2018-09-23T03:12:27.764Z,962.62
2018-09-23T03:13:27.767Z,962.61
2018-09-23T03:14:27.761Z,962.61
2018-09-23T03:15:27.760Z,962.64
2018-09-23T03:16:27.755Z,962.56
2018-09-23T03:17:27.753Z,962.55
2018-09-23T03:18:27.755Z,962.54
2018-09-23T03:19:27.747Z,962.56
2018-09-23T03:20:27.750Z,962.57
2018-09-23T03:21:27.749Z,962.58
2018-09-23T03:22:27.743Z,962.56
2018-09-23T03:23:27.739Z,962.53
2018-09-23T03:24:27.740Z,962.50
2018-09-23T03:25:27.735Z,962.51
2018-09-23T03:26:27.738Z,962.46
2018-09-23T03:27:27.731Z,962.39
2018-09-23T03:28:27.730Z,962.36
2018-09-23T03:29:27.731Z,962.31
2018-09-23T03:30:27.726Z,962.30
2018-09-23T03:31:27.730Z,962.26
2018-09-23T03:32:27.723Z,962.26
2018-09-23T03:33:27.716Z,962.29
2018-09-23T03:34:27.715Z,962.23
2018-09-23T03:35:27.717Z,962.24
2018-09-23T03:36:27.711Z,962.20
2018-09-23T03:37:27.711Z,962.20
2018-09-23T03:38:27.712Z,962.23
2018-09-23T03:39:27.706Z,962.19
2018-09-23T03:40:27.716Z,962.13
2018-09-23T03:41:27.697Z,962.12
2018-09-23T03:42:27.723Z,962.18
2018-09-23T03:43:27.703Z,962.15
2018-09-23T03:44:27.692Z,962.18
2018-09-23T03:45:27.692Z,962.19
2018-09-23T03:46:27.687Z,962.19
2018-09-23T03:47:27.688Z,962.19
2018-09-23T03:48:27.683Z,962.13
2018-09-23T03:49:27.684Z,962.06
2018-09-23T03:50:27.681Z,962.01
2018-09-23T03:51:27.696Z,962.00
2018-09-23T03:52:27.673Z,962.02
2018-09-23T03:53:27.674Z,961.92
2018-09-23T03:54:27.669Z,961.94
2018-09-23T03:55:27.668Z,961.86
2018-09-23T03:56:27.667Z,961.88
2018-09-23T03:57:27.667Z,961.89
2018-09-23T03:58:27.664Z,961.82
2018-09-23T03:59:27.658Z,961.87
2018-09-23T04:00:27.657Z,961.90
2018-09-23T04:01:27.654Z,962.02
2018-09-23T04:02:27.651Z,961.99
2018-09-23T04:03:27.651Z,961.93
2018-09-23T04:04:27.648Z,961.89
2018-09-23T04:05:27.646Z,961.82
2018-09-23T04:06:27.644Z,961.79
2018-09-23T04:07:27.643Z,961.78
2018-09-23T04:08:27.640Z,961.72
2018-09-23T04:09:27.638Z,961.67
2018-09-23T04:10:27.639Z,961.69
2018-09-23T04:11:27.634Z,961.67
2018-09-23T04:12:27.633Z,961.73
2018-09-23T04:13:27.628Z,961.71
2018-09-23T04:14:27.628Z,961.75
2018-09-23T04:15:27.642Z,961.72
2018-09-23T04:16:27.625Z,961.69
2018-09-23T04:17:27.623Z,961.64
2018-09-23T04:18:27.622Z,961.62
2018-09-23T04:19:27.615Z,961.59
2018-09-23T04:20:27.635Z,961.61
2018-09-23T04:21:27.612Z,961.63
2018-09-23T04:22:27.612Z,961.67
2018-09-23T04:23:27.609Z,961.70
2018-09-23T04:24:27.604Z,961.68
2018-09-23T04:25:27.602Z,961.61
2018-09-23T04:26:27.598Z,961.57
2018-09-23T04:27:27.669Z,961.54
2018-09-23T04:28:27.594Z,961.61
2018-09-23T04:29:27.592Z,961.60
2018-09-23T04:30:27.589Z,961.61
2018-09-23T04:31:27.596Z,961.59
2018-09-23T04:32:27.587Z,961.57
2018-09-23T04:33:27.581Z,961.53
2018-09-23T04:34:27.584Z,961.48
2018-09-23T04:35:27.583Z,961.40
2018-09-23T04:36:27.576Z,961.26
2018-09-23T04:37:27.574Z,961.25
2018-09-23T04:38:27.571Z,961.27
2018-09-23T04:39:27.567Z,961.25
2018-09-23T04:40:27.568Z,961.19
2018-09-23T04:41:27.564Z,961.21
2018-09-23T04:42:27.563Z,961.26
2018-09-23T04:43:27.560Z,961.35
2018-09-23T04:44:27.555Z,961.34
2018-09-23T04:45:27.557Z,961.33
2018-09-23T04:46:27.562Z,961.38
2018-09-23T04:47:27.556Z,961.39
2018-09-23T04:48:27.552Z,961.35
2018-09-23T04:49:27.545Z,961.34
2018-09-23T04:50:27.542Z,961.30
2018-09-23T04:51:27.544Z,961.31
2018-09-23T04:52:27.541Z,961.36
2018-09-23T04:53:27.541Z,961.37
2018-09-23T04:54:27.534Z,961.32
2018-09-23T04:55:27.674Z,961.33
2018-09-23T04:56:27.532Z,961.35
2018-09-23T04:57:27.529Z,961.38
2018-09-23T04:58:27.524Z,961.40
2018-09-23T04:59:27.523Z,961.35
2018-09-23T05:00:27.520Z,961.37
2018-09-23T05:01:27.626Z,961.36
2018-09-23T05:02:27.518Z,961.33
2018-09-23T05:03:27.520Z,961.28
2018-09-23T05:04:27.507Z,961.24
2018-09-23T05:05:27.509Z,961.18
2018-09-23T05:06:27.506Z,961.12
2018-09-23T05:07:27.504Z,961.13
2018-09-23T05:08:27.502Z,961.02
2018-09-23T05:09:27.500Z,961.00
2018-09-23T05:10:27.500Z,961.04
2018-09-23T05:11:27.493Z,961.09
2018-09-23T05:12:27.514Z,961.09
2018-09-23T05:13:27.509Z,961.14
2018-09-23T05:14:27.488Z,961.15
2018-09-23T05:15:27.489Z,961.09
2018-09-23T05:16:27.481Z,961.06
2018-09-23T05:17:27.486Z,961.00
2018-09-23T05:18:27.482Z,960.92
2018-09-23T05:19:27.476Z,960.90
2018-09-23T05:20:27.476Z,960.93
2018-09-23T05:21:27.473Z,960.98
2018-09-23T05:22:27.482Z,960.96
2018-09-23T05:23:27.476Z,960.94
2018-09-23T05:24:27.467Z,960.95
2018-09-23T05:25:27.465Z,960.96
2018-09-23T05:26:27.462Z,961.03
2018-09-23T05:27:27.460Z,960.96
2018-09-23T05:28:27.457Z,960.96
2018-09-23T05:29:27.454Z,960.94
2018-09-23T05:30:27.453Z,960.90
2018-09-23T05:31:27.450Z,960.85
2018-09-23T05:32:27.448Z,960.81
2018-09-23T05:33:27.472Z,960.75
2018-09-23T05:34:27.443Z,960.72
2018-09-23T05:35:27.490Z,960.73
2018-09-23T05:36:29.125Z,960.77
2018-09-23T05:37:27.437Z,960.81
2018-09-23T05:38:27.433Z,960.79
2018-09-23T05:39:27.431Z,960.77
2018-09-23T05:40:27.429Z,960.78
2018-09-23T05:41:27.464Z,960.77
2018-09-23T05:42:27.425Z,960.76
2018-09-23T05:43:27.426Z,960.72
2018-09-23T05:44:27.419Z,960.65
2018-09-23T05:45:27.417Z,960.61
2018-09-23T05:46:27.417Z,960.62
2018-09-23T05:47:27.421Z,960.59
2018-09-23T05:48:27.413Z,960.51
2018-09-23T05:49:27.409Z,960.48
2018-09-23T05:50:27.412Z,960.40
2018-09-23T05:51:27.408Z,960.41
2018-09-23T05:52:27.404Z,960.46
2018-09-23T05:53:27.431Z,960.47
2018-09-23T05:54:27.425Z,960.50
2018-09-23T05:55:27.418Z,960.46
2018-09-23T05:56:27.397Z,960.44
2018-09-23T05:57:27.396Z,960.42
2018-09-23T05:58:27.395Z,960.39
2018-09-23T05:59:27.392Z,960.41
2018-09-23T06:00:27.395Z,960.38
2018-09-23T06:01:27.389Z,960.39
2018-09-23T06:02:27.386Z,960.30
2018-09-23T06:03:27.390Z,960.25
2018-09-23T06:04:27.380Z,960.31
2018-09-23T06:05:27.414Z,960.29
2018-09-23T06:06:27.379Z,960.24
2018-09-23T06:07:27.383Z,960.24
2018-09-23T06:08:27.370Z,960.22
2018-09-23T06:09:27.371Z,960.15
2018-09-23T06:10:27.368Z,960.06
2018-09-23T06:11:27.393Z,960.12
2018-09-23T06:12:27.371Z,960.12
2018-09-23T06:13:27.360Z,960.07
2018-09-23T06:14:27.364Z,960.05
2018-09-23T06:15:27.361Z,960.09
2018-09-23T06:16:27.350Z,960.14
2018-09-23T06:17:27.354Z,960.14
2018-09-23T06:18:27.429Z,960.07
2018-09-23T06:19:27.350Z,960.09
2018-09-23T06:20:27.348Z,960.08
2018-09-23T06:21:27.347Z,960.13
2018-09-23T06:22:27.342Z,960.13
2018-09-23T06:23:27.341Z,960.11
2018-09-23T06:24:27.335Z,960.18
2018-09-23T06:25:27.331Z,960.19
2018-09-23T06:26:27.332Z,960.18
2018-09-23T06:27:27.330Z,960.10
2018-09-23T06:28:27.347Z,960.12
2018-09-23T06:29:27.331Z,960.09
2018-09-23T06:30:27.343Z,960.08
2018-09-23T06:31:27.321Z,960.07
2018-09-23T06:32:27.332Z,960.09
2018-09-23T06:33:27.332Z,960.08
2018-09-23T06:34:27.395Z,960.05
2018-09-23T06:35:27.316Z,960.02
2018-09-23T06:36:27.364Z,960.09
2018-09-23T06:37:27.307Z,960.07
2018-09-23T06:38:27.319Z,960.09
2018-09-23T06:39:27.308Z,960.05
2018-09-23T06:40:27.305Z,960.00
2018-09-23T06:41:27.324Z,960.01
2018-09-23T06:42:27.303Z,959.97
2018-09-23T06:43:27.295Z,959.94
2018-09-23T06:44:27.292Z,959.95
2018-09-23T06:45:27.292Z,959.91
2018-09-23T06:46:27.289Z,959.90
2018-09-23T06:47:27.283Z,959.86
2018-09-23T06:48:27.288Z,959.89
2018-09-23T06:49:27.282Z,959.89
2018-09-23T06:50:27.282Z,959.85
2018-09-23T06:51:27.283Z,959.89
2018-09-23T06:52:27.276Z,959.92
2018-09-23T06:53:27.278Z,959.92
2018-09-23T06:54:27.272Z,959.95
2018-09-23T06:55:27.271Z,959.96
2018-09-23T06:56:27.268Z,959.96
2018-09-23T06:57:27.273Z,959.91
2018-09-23T06:58:27.266Z,959.90
2018-09-23T06:59:27.262Z,959.90
2018-09-23T07:00:27.259Z,959.90
2018-09-23T07:01:27.284Z,959.86
2018-09-23T07:02:27.257Z,959.87
2018-09-23T07:03:27.254Z,959.84
2018-09-23T07:04:27.314Z,959.82
2018-09-23T07:05:27.248Z,959.81
2018-09-23T07:06:27.247Z,959.77
2018-09-23T07:07:27.248Z,959.81
2018-09-23T07:08:27.278Z,959.77
2018-09-23T07:09:27.244Z,959.74
2018-09-23T07:10:27.281Z,959.74
2018-09-23T07:11:27.240Z,959.77
2018-09-23T07:12:27.241Z,959.80
2018-09-23T07:13:27.235Z,959.75
2018-09-23T07:14:27.234Z,959.77
2018-09-23T07:15:27.257Z,959.80
2018-09-23T07:16:27.233Z,959.80
2018-09-23T07:17:27.227Z,959.77
2018-09-23T07:18:27.225Z,959.77
2018-09-23T07:19:27.221Z,959.73
2018-09-23T07:20:27.220Z,959.65
2018-09-23T07:21:27.220Z,959.59
2018-09-23T07:22:27.218Z,959.59
2018-09-23T07:23:27.217Z,959.65
2018-09-23T07:24:27.241Z,959.66
2018-09-23T07:25:27.215Z,959.70
2018-09-23T07:26:27.216Z,959.69
2018-09-23T07:27:27.209Z,959.70
2018-09-23T07:28:27.207Z,959.61
2018-09-23T07:29:27.208Z,959.61
2018-09-23T07:30:27.203Z,959.60
2018-09-23T07:31:27.204Z,959.59
2018-09-23T07:32:27.200Z,959.61
2018-09-23T07:33:27.197Z,959.60
2018-09-23T07:34:27.196Z,959.61
2018-09-23T07:35:27.195Z,959.62
2018-09-23T07:36:27.193Z,959.53
2018-09-23T07:37:27.192Z,959.56
2018-09-23T07:38:27.213Z,959.51
2018-09-23T07:39:27.334Z,959.53
2018-09-23T07:40:27.186Z,959.51
2018-09-23T07:41:27.187Z,959.50
2018-09-23T07:42:27.186Z,959.45
2018-09-23T07:43:27.186Z,959.44
2018-09-23T07:44:27.180Z,959.43
2018-09-23T07:45:27.182Z,959.40
2018-09-23T07:46:27.178Z,959.36
2018-09-23T07:47:27.176Z,959.35
2018-09-23T07:48:27.174Z,959.40
2018-09-23T07:49:27.172Z,959.33
2018-09-23T07:50:27.171Z,959.40
2018-09-23T07:51:27.172Z,959.42
2018-09-23T07:52:27.173Z,959.42
2018-09-23T07:53:27.167Z,959.45
2018-09-23T07:54:27.170Z,959.47
2018-09-23T07:55:27.166Z,959.44
2018-09-23T07:56:27.200Z,959.41
2018-09-23T07:57:27.161Z,959.35
2018-09-23T07:58:27.159Z,959.29
2018-09-23T07:59:27.157Z,959.28
2018-09-23T08:00:27.211Z,959.32
2018-09-23T08:01:27.159Z,959.27
2018-09-23T08:02:27.229Z,959.29
2018-09-23T08:03:27.222Z,959.27
2018-09-23T08:04:27.149Z,959.26
2018-09-23T08:05:34.471Z,959.25
2018-09-23T08:07:20.522Z,959.15
2018-09-23T08:08:20.468Z,959.16
2018-09-23T08:10:13.144Z,959.16
2018-09-23T08:11:13.094Z,959.19
2018-09-23T08:13:08.959Z,959.14
2018-09-23T08:14:07.539Z,959.18
2018-09-23T08:15:07.195Z,959.15
2018-09-23T08:16:06.656Z,959.17
2018-09-23T08:17:06.855Z,959.15
2018-09-23T08:18:06.644Z,959.14
2018-09-23T08:19:06.669Z,959.12
2018-09-23T08:20:06.659Z,959.12
2018-09-23T08:21:06.635Z,959.13
2018-09-23T08:22:06.637Z,959.11
2018-09-23T08:23:06.680Z,959.10
2018-09-23T08:24:06.613Z,959.09
2018-09-23T08:25:06.672Z,959.10
2018-09-23T08:26:06.629Z,959.06
2018-09-23T08:27:06.616Z,959.04
2018-09-23T08:28:06.608Z,959.04
2018-09-23T08:29:06.611Z,959.04
2018-09-23T08:30:06.609Z,959.05
2018-09-23T08:31:06.606Z,959.03
2018-09-23T08:32:06.601Z,959.03
2018-09-23T08:33:06.679Z,959.00
2018-09-23T08:34:06.606Z,959.00
2018-09-23T08:35:06.635Z,958.96
2018-09-23T08:36:06.601Z,958.91
2018-09-23T08:37:06.600Z,958.91
2018-09-23T08:38:06.600Z,958.88
2018-09-23T08:39:06.601Z,958.94
2018-09-23T08:40:06.686Z,958.92
2018-09-23T08:41:06.596Z,958.89
2018-09-23T08:42:06.598Z,958.85
2018-09-23T08:43:06.611Z,958.86
2018-09-23T08:44:06.632Z,958.84
2018-09-23T08:45:06.598Z,958.83
2018-09-23T08:46:06.637Z,958.85
2018-09-23T08:47:06.589Z,958.84
2018-09-23T08:48:06.684Z,958.87
2018-09-23T08:49:06.587Z,958.85
2018-09-23T08:50:06.598Z,958.79
2018-09-23T08:51:06.586Z,958.80
2018-09-23T08:52:06.601Z,958.80
2018-09-23T08:53:06.583Z,958.80
2018-09-23T08:54:06.581Z,958.79
2018-09-23T08:55:06.580Z,958.82
2018-09-23T08:56:06.621Z,958.86
2018-09-23T08:57:06.610Z,958.86
2018-09-23T08:58:06.587Z,958.83
2018-09-23T08:59:06.577Z,958.82
2018-09-23T09:00:06.579Z,958.82
2018-09-23T09:01:06.607Z,958.78
2018-09-23T09:02:06.577Z,958.73
2018-09-23T09:03:06.578Z,958.66
2018-09-23T09:04:06.615Z,958.66
2018-09-23T09:05:06.572Z,958.64
2018-09-23T09:06:06.582Z,958.65
2018-09-23T09:07:06.569Z,958.63
2018-09-23T09:08:06.570Z,958.62
2018-09-23T09:09:06.574Z,958.58
2018-09-23T09:10:06.586Z,958.51
2018-09-23T09:11:06.570Z,958.52
2018-09-23T09:12:06.566Z,958.52
2018-09-23T09:13:06.566Z,958.53
2018-09-23T09:14:06.559Z,958.51
2018-09-23T09:15:06.569Z,958.47
2018-09-23T09:16:06.589Z,958.48
2018-09-23T09:17:06.563Z,958.44
2018-09-23T09:18:06.567Z,958.42
2018-09-23T09:19:06.563Z,958.34
2018-09-23T09:20:06.590Z,958.33
2018-09-23T09:21:06.556Z,958.29
2018-09-23T09:22:06.560Z,958.24
2018-09-23T09:23:06.558Z,958.18
2018-09-23T09:24:06.559Z,958.20
2018-09-23T09:25:06.556Z,958.17
2018-09-23T09:26:06.554Z,958.11
2018-09-23T09:27:06.639Z,958.05
2018-09-23T09:28:06.553Z,958.05
2018-09-23T09:29:06.553Z,958.05
2018-09-23T09:30:06.586Z,958.00
2018-09-23T09:31:06.562Z,957.95
2018-09-23T09:32:06.551Z,957.96
2018-09-23T09:33:06.610Z,957.99
2018-09-23T09:34:06.554Z,957.99
2018-09-23T09:35:06.554Z,957.97
2018-09-23T09:36:06.549Z,957.91
2018-09-23T09:37:06.548Z,957.96
2018-09-23T09:38:06.543Z,957.93
2018-09-23T09:39:08.374Z,957.96
2018-09-23T09:40:06.547Z,957.95
2018-09-23T09:41:06.576Z,957.91
2018-09-23T09:42:06.546Z,957.91
2018-09-23T09:43:06.553Z,957.85
2018-09-23T09:44:06.607Z,957.88
2018-09-23T09:45:06.546Z,957.84
2018-09-23T09:46:06.555Z,957.83
2018-09-23T09:47:06.542Z,957.82
2018-09-23T09:48:06.544Z,957.81
2018-09-23T09:49:06.538Z,957.79
2018-09-23T09:50:06.542Z,957.77
2018-09-23T09:51:06.543Z,957.70
2018-09-23T09:52:06.560Z,957.71
2018-09-23T09:53:06.586Z,957.71
2018-09-23T09:54:06.547Z,957.72
2018-09-23T09:55:06.563Z,957.73
2018-09-23T09:56:08.368Z,957.73
2018-09-23T09:57:08.343Z,957.68
2018-09-23T09:58:08.341Z,957.66
2018-09-23T09:59:06.545Z,957.69
2018-09-23T10:00:06.545Z,957.66
2018-09-23T10:01:06.538Z,957.59
2018-09-23T10:02:08.460Z,957.59
2018-09-23T10:03:06.540Z,957.57
2018-09-23T10:04:08.416Z,957.53
2018-09-23T10:05:07.575Z,957.52
2018-09-23T10:06:06.536Z,957.47
2018-09-23T10:07:06.538Z,957.46
2018-09-23T10:08:06.537Z,957.43
2018-09-23T10:09:06.606Z,957.45
2018-09-23T10:10:06.538Z,957.39
2018-09-23T10:11:06.531Z,957.37
2018-09-23T10:12:06.533Z,957.33
2018-09-23T10:13:08.344Z,957.35
2018-09-23T10:14:06.555Z,957.32
2018-09-23T10:15:15.637Z,957.31
2018-09-23T10:17:00.482Z,957.26
2018-09-23T10:18:02.434Z,957.25
2018-09-23T10:19:53.608Z,957.18
2018-09-23T10:20:53.773Z,957.14
2018-09-23T10:22:46.580Z,957.08
2018-09-23T10:23:47.553Z,957.04
2018-09-23T10:25:39.369Z,956.98
2018-09-23T10:26:39.393Z,956.95
2018-09-23T10:28:32.179Z,956.89
2018-09-23T10:29:32.163Z,956.88
2018-09-23T10:31:25.107Z,956.80
2018-09-23T10:32:25.001Z,956.78
2018-09-23T10:34:18.023Z,956.69
2018-09-23T10:35:17.979Z,956.68
2018-09-23T10:37:10.874Z,956.66
2018-09-23T10:38:10.858Z,956.63
2018-09-23T10:40:04.180Z,956.61
2018-09-23T10:41:04.539Z,956.58
2018-09-23T10:42:57.783Z,956.54
2018-09-23T10:43:57.982Z,956.48
2018-09-23T10:45:51.468Z,956.47
2018-09-23T10:46:51.695Z,956.47
2018-09-23T10:48:44.382Z,956.46
2018-09-23T10:49:44.348Z,956.48
2018-09-23T10:51:37.540Z,956.45
2018-09-23T10:52:37.369Z,956.39
2018-09-23T10:54:38.231Z,956.31
2018-09-23T10:55:31.513Z,956.34
2018-09-23T10:56:30.211Z,956.28
2018-09-23T10:57:30.235Z,956.27
2018-09-23T10:58:30.221Z,956.26
2018-09-23T10:59:30.480Z,956.24
2018-09-23T11:00:29.988Z,956.24
2018-09-23T11:01:29.984Z,956.18
2018-09-23T11:02:29.974Z,956.15
2018-09-23T11:03:29.984Z,956.06
2018-09-23T11:04:29.980Z,956.09
2018-09-23T11:05:29.967Z,956.05
2018-09-23T11:06:29.957Z,956.11
2018-09-23T11:07:30.010Z,956.11
2018-09-23T11:08:29.964Z,956.07
2018-09-23T11:09:29.956Z,956.00
2018-09-23T11:10:37.259Z,955.96
2018-09-23T11:12:24.293Z,955.81
2018-09-23T11:13:30.048Z,955.78
2018-09-23T11:15:17.186Z,955.70
2018-09-23T11:16:16.721Z,955.73
2018-09-23T11:18:09.720Z,955.73
2018-09-23T11:19:09.647Z,955.65
2018-09-23T11:21:02.556Z,955.47
2018-09-23T11:22:02.467Z,955.39
2018-09-23T11:23:55.521Z,955.32
2018-09-23T11:24:55.355Z,955.25
2018-09-23T11:26:48.341Z,955.15
2018-09-23T11:27:48.193Z,955.15
2018-09-23T11:29:41.187Z,955.15
2018-09-23T11:30:41.168Z,955.13
2018-09-23T11:32:34.394Z,955.11
2018-09-23T11:33:34.038Z,955.12
2018-09-23T11:35:27.112Z,954.97
2018-09-23T11:36:26.928Z,954.95
2018-09-23T11:38:19.916Z,954.77
2018-09-23T11:39:26.870Z,954.79
2018-09-23T11:41:12.714Z,954.74
2018-09-23T11:42:12.686Z,954.68
2018-09-23T11:44:05.477Z,954.71
2018-09-23T11:45:05.491Z,954.68
2018-09-23T11:46:58.944Z,954.52
2018-09-23T11:47:58.905Z,954.54
2018-09-23T11:49:51.748Z,954.42
2018-09-23T11:50:51.688Z,954.42
2018-09-23T11:52:45.061Z,954.36
2018-09-23T11:53:44.718Z,954.35
2018-09-23T11:55:37.614Z,954.25
2018-09-23T11:56:37.580Z,954.23
2018-09-23T11:58:30.808Z,954.26
2018-09-23T11:59:30.796Z,954.15
2018-09-23T12:01:24.327Z,953.93
2018-09-23T12:02:23.477Z,953.79
2018-09-23T12:04:18.366Z,953.56
2018-09-23T12:05:18.668Z,953.52
2018-09-23T12:07:11.378Z,953.54
2018-09-23T12:08:10.997Z,953.49
2018-09-23T12:10:03.805Z,953.43
2018-09-23T12:11:03.799Z,953.28
2018-09-23T12:12:56.727Z,953.13
2018-09-23T12:13:56.702Z,953.00
2018-09-23T12:15:49.552Z,953.03
2018-09-23T12:16:49.555Z,952.93
2018-09-23T12:18:42.430Z,952.78
2018-09-23T12:19:42.460Z,952.78
2018-09-23T12:21:35.360Z,952.70
2018-09-23T12:22:35.350Z,952.64
2018-09-23T12:24:28.323Z,952.59
2018-09-23T12:25:28.310Z,952.51
2018-09-23T12:27:21.227Z,952.44
2018-09-23T12:28:21.105Z,952.42
2018-09-23T12:30:14.168Z,952.33
2018-09-23T12:31:13.979Z,952.25
2018-09-23T12:33:07.461Z,952.31
2018-09-23T12:34:07.422Z,952.24
2018-09-23T12:35:07.408Z,952.21
2018-09-23T12:36:07.440Z,952.10
2018-09-23T12:37:07.373Z,952.03
2018-09-23T12:38:07.393Z,951.93
2018-09-23T12:40:00.983Z,951.81
2018-09-23T12:41:00.899Z,951.80
2018-09-23T12:42:53.881Z,951.69
2018-09-23T12:43:53.891Z,951.61
2018-09-23T12:45:47.020Z,951.53
2018-09-23T12:46:46.789Z,951.48
2018-09-23T12:48:39.778Z,951.38
2018-09-23T12:49:39.892Z,951.24
2018-09-23T12:51:32.714Z,951.23
2018-09-23T12:52:32.909Z,951.08
2018-09-23T12:54:25.611Z,951.01
2018-09-23T12:55:26.147Z,950.97
2018-09-23T12:57:18.431Z,950.86
2018-09-23T12:58:18.577Z,950.84
2018-09-23T13:00:11.360Z,950.82
2018-09-23T13:01:11.933Z,950.67
2018-09-23T13:03:04.427Z,950.72
2018-09-23T13:04:04.275Z,950.63
2018-09-23T13:05:57.545Z,950.67
2018-09-23T13:06:59.029Z,950.72
2018-09-23T13:08:50.426Z,950.64
2018-09-23T13:09:50.342Z,950.56
2018-09-23T13:11:43.350Z,950.45
2018-09-23T13:12:43.345Z,950.48
2018-09-23T13:14:36.332Z,950.49
2018-09-23T13:15:35.973Z,950.44
2018-09-23T13:17:29.060Z,950.29
2018-09-23T13:18:29.016Z,950.31
2018-09-23T13:20:21.916Z,950.29
2018-09-23T13:21:21.837Z,950.25
2018-09-23T13:23:14.686Z,950.13